CX259 VHHH-EGCC
Flight info
| Callsign | CX259 |
|---|---|
| Flight time | N/A |
| Altitude | 27600 |
| Route | BEKOL A461 SHL W22 TEPID W24 OSNOV G586 QP B330 ELKAL W179 IGNAK/K0937S0890 W179 WFX/K0911S0840 W179 OMBON W195 VIDEK/K0930S0890 W195 LAXAL/K0924S0920 W195 IDOPA W197 ANDIM B215 IBANO G470 AKLAS W192 FKG A368 SARIN/K0924F300 N161 GOMAL/K0913F320 N161 GASBI/N0496F320 N161 LEYLA N644 ADEKI DCT BADIR DCT LAGAS DCT FOQUS/N0488F340 DCT SARPI UM10 OLUPO UL851 KARDE UN644 SIN UW90 INB UL746 ODERO L746 LUGEB DCT OBCAS DCT SOBSA DCT REBLA DCT RILAS DCT BADOR DCT PITOK DCT MAKAL DCT LALUK DCT KUMER DCT MIMVA DCT OTBED |
| Aircraft | B77W/H-SDE1E2E3FGHIJ2J3J4J5M1RWXY/LB1D1 |
Departure
| Time | N/A |
|---|---|
| Airport | Hong Kong International Airport (VHHH) |
Arrival
| Time | 2026-05-04 10:06 |
|---|---|
| Airport | Manchester Airport (EGCC) |
| Time | Latitude | Longitude | Altitude | Speed | Heading |
|---|---|---|---|---|---|
| 2026-05-04 09:25 | 53.21404 | 1.52329 | 36048 ft | 470 kts | 274° |
| 2026-05-04 09:25 | 53.21702 | 1.46977 | 36046 ft | 470 kts | 274° |
| 2026-05-04 09:26 | 53.22299 | 1.36111 | 36037 ft | 470 kts | 274° |
| 2026-05-04 09:26 | 53.22886 | 1.25247 | 36039 ft | 470 kts | 274° |
| 2026-05-04 09:27 | 53.23464 | 1.14385 | 36048 ft | 470 kts | 274° |
| 2026-05-04 09:27 | 53.24031 | 1.03524 | 36045 ft | 470 kts | 274° |
| 2026-05-04 09:28 | 53.24587 | 0.92677 | 35922 ft | 467 kts | 274° |
| 2026-05-04 09:28 | 53.24860 | 0.87277 | 35646 ft | 467 kts | 274° |
| 2026-05-04 09:28 | 53.25131 | 0.81862 | 35186 ft | 470 kts | 274° |
| 2026-05-04 09:29 | 53.25403 | 0.76384 | 34655 ft | 476 kts | 275° |
| 2026-05-04 09:29 | 53.25675 | 0.70864 | 34265 ft | 478 kts | 275° |
| 2026-05-04 09:29 | 53.25944 | 0.65343 | 33897 ft | 478 kts | 275° |
| 2026-05-04 09:29 | 53.26212 | 0.59802 | 33456 ft | 479 kts | 275° |
| 2026-05-04 09:30 | 53.26478 | 0.54248 | 32986 ft | 480 kts | 275° |
| 2026-05-04 09:30 | 53.26741 | 0.48687 | 32433 ft | 483 kts | 275° |
| 2026-05-04 09:30 | 53.27005 | 0.43044 | 31647 ft | 491 kts | 275° |
| 2026-05-04 09:30 | 53.27270 | 0.37339 | 31230 ft | 491 kts | 275° |
| 2026-05-04 09:31 | 53.27530 | 0.31676 | 31043 ft | 486 kts | 275° |
| 2026-05-04 09:31 | 53.27784 | 0.26086 | 30875 ft | 481 kts | 275° |
| 2026-05-04 09:31 | 53.28033 | 0.20530 | 30622 ft | 478 kts | 275° |
| 2026-05-04 09:31 | 53.28280 | 0.15011 | 30209 ft | 475 kts | 275° |
| 2026-05-04 09:32 | 53.28522 | 0.09525 | 29589 ft | 471 kts | 275° |
| 2026-05-04 09:32 | 53.28815 | 0.04121 | 29034 ft | 463 kts | 280° |
| 2026-05-04 09:34 | 53.38239 | -0.29133 | 25518 ft | 445 kts | 297° |
| 2026-05-04 09:34 | 53.39583 | -0.33781 | 25034 ft | 441 kts | 296° |
| 2026-05-04 09:34 | 53.40913 | -0.38389 | 24552 ft | 438 kts | 296° |
| 2026-05-04 09:34 | 53.42232 | -0.42968 | 24061 ft | 434 kts | 296° |
| 2026-05-04 09:35 | 53.43539 | -0.47514 | 23590 ft | 431 kts | 296° |
| 2026-05-04 09:35 | 53.44817 | -0.51962 | 23048 ft | 427 kts | 295° |
| 2026-05-04 09:35 | 53.46093 | -0.56411 | 22553 ft | 420 kts | 295° |
| 2026-05-04 09:35 | 53.47349 | -0.60801 | 22099 ft | 414 kts | 295° |
| 2026-05-04 09:37 | 53.55704 | -0.90196 | 19000 ft | 387 kts | 294° |
| 2026-05-04 09:37 | 53.56856 | -0.94280 | 18573 ft | 385 kts | 294° |
| 2026-05-04 09:38 | 53.57999 | -0.98333 | 18121 ft | 383 kts | 294° |
| 2026-05-04 09:38 | 53.59134 | -1.02369 | 17655 ft | 380 kts | 294° |
| 2026-05-04 09:38 | 53.60260 | -1.06383 | 17216 ft | 378 kts | 294° |
| 2026-05-04 09:38 | 53.61254 | -1.10440 | 16915 ft | 371 kts | 287° |
| 2026-05-04 09:39 | 53.61923 | -1.14654 | 16734 ft | 375 kts | 282° |
| 2026-05-04 09:39 | 53.62472 | -1.18975 | 16495 ft | 380 kts | 281° |
| 2026-05-04 09:39 | 53.62997 | -1.23334 | 16276 ft | 379 kts | 281° |
| 2026-05-04 09:39 | 53.63529 | -1.27666 | 16061 ft | 377 kts | 281° |
| 2026-05-04 09:40 | 53.64076 | -1.31979 | 15838 ft | 375 kts | 282° |
| 2026-05-04 09:40 | 53.64634 | -1.36263 | 15626 ft | 374 kts | 282° |
| 2026-05-04 09:40 | 53.65199 | -1.40531 | 15410 ft | 372 kts | 282° |
| 2026-05-04 09:40 | 53.65766 | -1.44779 | 15183 ft | 370 kts | 282° |
| 2026-05-04 09:41 | 53.66328 | -1.48984 | 14984 ft | 369 kts | 282° |
| 2026-05-04 09:42 | 53.70218 | -1.78297 | 13470 ft | 363 kts | 282° |
| 2026-05-04 09:43 | 53.70761 | -1.82441 | 13250 ft | 361 kts | 282° |
| 2026-05-04 09:43 | 53.71302 | -1.86578 | 13038 ft | 360 kts | 282° |
| 2026-05-04 09:43 | 53.71837 | -1.90683 | 12838 ft | 358 kts | 282° |
| 2026-05-04 09:43 | 53.72371 | -1.94784 | 12630 ft | 357 kts | 282° |
| 2026-05-04 09:44 | 53.72901 | -1.98867 | 12422 ft | 356 kts | 282° |
| 2026-05-04 09:44 | 53.73429 | -2.02951 | 12210 ft | 355 kts | 282° |
| 2026-05-04 09:44 | 53.73953 | -2.07020 | 11987 ft | 355 kts | 282° |
| 2026-05-04 09:46 | 53.73394 | -2.35260 | 10591 ft | 322 kts | 267° |
| 2026-05-04 09:46 | 53.73241 | -2.38990 | 10405 ft | 314 kts | 267° |
| 2026-05-04 09:46 | 53.73095 | -2.42566 | 10206 ft | 296 kts | 267° |
| 2026-05-04 09:47 | 53.72957 | -2.45930 | 10038 ft | 279 kts | 267° |
| 2026-05-04 09:47 | 53.72823 | -2.49153 | 9878 ft | 275 kts | 267° |
| 2026-05-04 09:49 | 53.80536 | -2.54463 | 8751 ft | 265 kts | 71° |
| 2026-05-04 09:49 | 53.80722 | -2.51367 | 8612 ft | 267 kts | 96° |
| 2026-05-04 09:49 | 53.80157 | -2.48390 | 8447 ft | 270 kts | 121° |
| 2026-05-04 09:51 | 53.72173 | -2.36313 | 7600 ft | 272 kts | 171° |
| 2026-05-04 09:51 | 53.70291 | -2.35839 | 7404 ft | 271 kts | 174° |
| 2026-05-04 09:51 | 53.68445 | -2.36157 | 7212 ft | 266 kts | 201° |
| 2026-05-04 09:51 | 53.66821 | -2.37528 | 7140 ft | 259 kts | 209° |
| 2026-05-04 09:52 | 53.65784 | -2.38505 | 7092 ft | 257 kts | 210° |
| 2026-05-04 09:52 | 53.64242 | -2.39958 | 7074 ft | 255 kts | 210° |
| 2026-05-04 09:52 | 53.62693 | -2.41424 | 7077 ft | 255 kts | 210° |
| 2026-05-04 09:52 | 53.61146 | -2.42894 | 7077 ft | 256 kts | 210° |
| 2026-05-04 09:53 | 53.59595 | -2.44371 | 7072 ft | 256 kts | 210° |
| 2026-05-04 09:53 | 53.57534 | -2.46335 | 6872 ft | 259 kts | 210° |
| 2026-05-04 09:53 | 53.56475 | -2.47344 | 6742 ft | 259 kts | 210° |
| 2026-05-04 09:53 | 53.54912 | -2.48833 | 6542 ft | 258 kts | 210° |
| 2026-05-04 09:54 | 53.53361 | -2.50310 | 6335 ft | 255 kts | 210° |
| 2026-05-04 09:54 | 53.51831 | -2.51771 | 6114 ft | 252 kts | 210° |
| 2026-05-04 09:54 | 53.50326 | -2.53213 | 5890 ft | 246 kts | 210° |
| 2026-05-04 09:54 | 53.48850 | -2.54630 | 5668 ft | 243 kts | 210° |
| 2026-05-04 09:55 | 53.47391 | -2.56033 | 5459 ft | 241 kts | 210° |
| 2026-05-04 09:55 | 53.45936 | -2.57436 | 5252 ft | 240 kts | 210° |
| 2026-05-04 09:55 | 53.44530 | -2.58797 | 5050 ft | 233 kts | 210° |
| 2026-05-04 09:55 | 53.43132 | -2.60160 | 4948 ft | 236 kts | 210° |
| 2026-05-04 09:56 | 53.41710 | -2.61555 | 4741 ft | 237 kts | 210° |
| 2026-05-04 09:56 | 53.40301 | -2.62938 | 4518 ft | 232 kts | 210° |
| 2026-05-04 09:56 | 53.38927 | -2.64287 | 4295 ft | 226 kts | 210° |
| 2026-05-04 09:56 | 53.37582 | -2.65607 | 4079 ft | 222 kts | 210° |
| 2026-05-04 09:57 | 53.36251 | -2.66914 | 3887 ft | 222 kts | 210° |
| 2026-05-04 09:57 | 53.34921 | -2.68218 | 3671 ft | 221 kts | 210° |
| 2026-05-04 09:57 | 53.33593 | -2.69516 | 3476 ft | 221 kts | 210° |
| 2026-05-04 09:57 | 53.32276 | -2.70802 | 3255 ft | 216 kts | 210° |
| 2026-05-04 09:58 | 53.30994 | -2.72055 | 3091 ft | 209 kts | 210° |
| 2026-05-04 09:58 | 53.29749 | -2.73269 | 3025 ft | 208 kts | 210° |
| 2026-05-04 09:58 | 53.28419 | -2.74183 | 3005 ft | 209 kts | 184° |
| 2026-05-04 10:00 | 53.22210 | -2.61911 | 2994 ft | 196 kts | 120° |
| 2026-05-04 10:00 | 53.21504 | -2.59989 | 3010 ft | 194 kts | 119° |
| 2026-05-04 10:02 | 53.25045 | -2.47871 | 2814 ft | 178 kts | 51° |
| 2026-05-04 10:04 | 53.29916 | -2.37842 | 1240 ft | 150 kts | 51° |
| 2026-05-04 10:04 | 53.30585 | -2.36453 | 1037 ft | 152 kts | 52° |
| 2026-05-04 10:04 | 53.31240 | -2.35097 | 844 ft | 153 kts | 51° |
| 2026-05-04 10:04 | 53.31904 | -2.33730 | 641 ft | 149 kts | 51° |
| 2026-05-04 10:05 | 53.32556 | -2.32376 | 423 ft | 151 kts | 51° |
| 2026-05-04 10:05 | 53.33220 | -2.31019 | 273 ft | 151 kts | 51° |
| 2026-05-04 10:05 | 53.33849 | -2.29724 | 237 ft | 127 kts | 51° |
| 2026-05-04 10:05 | 53.34289 | -2.28808 | 241 ft | 74 kts | 51° |
| 2026-05-04 10:06 | 53.34509 | -2.28363 | 238 ft | 32 kts | 45° |
| 2026-05-04 10:06 | 53.34681 | -2.28180 | 238 ft | 25 kts | 22° |
| 2026-05-04 10:06 | 53.34793 | -2.28111 | 238 ft | 14 kts | 22° |
| 2026-05-04 10:08 | 53.35266 | -2.27252 | 238 ft | 13 kts | 50° |
| 2026-05-04 10:08 | 53.35329 | -2.27193 | 238 ft | 0 kts | 5° |
| 2026-05-04 10:08 | 53.35332 | -2.27193 | 238 ft | 1 kts | 2° |
| 2026-05-04 10:09 | 53.35333 | -2.27193 | 238 ft | 2 kts | 360° |
| 2026-05-04 10:09 | 53.35392 | -2.27219 | 239 ft | 12 kts | 329° |
| 2026-05-04 10:09 | 53.35473 | -2.27321 | 245 ft | 20 kts | 320° |
| 2026-05-04 10:09 | 53.35562 | -2.27443 | 238 ft | 10 kts | 320° |
| 2026-05-04 10:10 | 53.35576 | -2.27462 | 238 ft | 0 kts | 320° |
| 2026-05-04 10:11 | 53.35582 | -2.27471 | 238 ft | 4 kts | 320° |
| 2026-05-04 10:11 | 53.35627 | -2.27534 | 238 ft | 13 kts | 321° |
| 2026-05-04 10:11 | 53.35681 | -2.27604 | 238 ft | 4 kts | 336° |
| 2026-05-04 10:16 | 53.36150 | -2.28098 | 238 ft | 17 kts | 317° |
| 2026-05-04 10:16 | 53.36237 | -2.28259 | 238 ft | 20 kts | 311° |
| 2026-05-04 10:16 | 53.36329 | -2.28422 | 238 ft | 14 kts | 315° |
| 2026-05-04 10:16 | 53.36400 | -2.28498 | 237 ft | 9 kts | 339° |
| 2026-05-04 10:17 | 53.36467 | -2.28548 | 238 ft | 11 kts | 326° |
| 2026-05-04 10:17 | 53.36511 | -2.28616 | 237 ft | 10 kts | 313° |